KBJI/BJI METAR and TAF weather

Enter ICAO airport designator
Station Type Date Time Source
KBJI METAR 2019/02/21 11:36 UTC NOAA

KBJI 211136Z AUTO 29004KT 10SM -SN CLR M12/M13 A2985 RMK AO2 T11161129


Station Type Date Time Source
KBJI Decoded METAR 2019/02/21 11:36 UTC NOAA

Bemidji, MN, United States (KBJI) 47-30N 094-56W 420M
Feb 21, 2019 - 06:36 AM EST / 2019.02.21 1136 UTC
Wind: from the WNW (290 degrees) at 5 MPH (4 KT):0
Visibility: 10 mile(s):0
Sky conditions: clear
Weather: light snow
Temperature: 11.1 F (-11.6 C)
Windchill: 3 F (-16 C):1
Dew Point: 8.8 F (-12.9 C)
Relative Humidity: 90%
Pressure (altimeter): 29.85 in. Hg (1010 hPa)
ob: KBJI 211136Z AUTO 29004KT 10SM -SN CLR M12/M13 A2985 RMK AO2 T11161129
cycle: 11

Station Type Date Time Source
KBJI TAF 2019/02/21 12:45 UTC NOAA

TAF KBJI 211142Z 2112/2212 VRB04KT P6SM BKN025
TEMPO 2112/2115 4SM -SN
FM211500 VRB04KT P6SM OVC013
FM221000 VRB03KT P6SM BKN020


Example: see airport list